sensor_id;sensor_type;location;lat;lon;timestamp;P1;durP1;ratioP1;P2;durP2;ratioP2
80400;SDS011;69727;53.132;8.230;2024-01-30T00:00:39;15.27;;;7.78;;
80400;SDS011;69727;53.132;8.230;2024-01-30T00:03:04;15.02;;;8.00;;
80400;SDS011;69727;53.132;8.230;2024-01-30T00:05:30;15.20;;;8.00;;
80400;SDS011;69727;53.132;8.230;2024-01-30T00:07:55;17.77;;;9.63;;
80400;SDS011;69727;53.132;8.230;2024-01-30T00:10:20;15.90;;;8.17;;
80400;SDS011;69727;53.132;8.230;2024-01-30T00:12:46;12.63;;;7.20;;
80400;SDS011;69727;53.132;8.230;2024-01-30T00:15:11;16.52;;;9.13;;
80400;SDS011;69727;53.132;8.230;2024-01-30T00:17:37;14.77;;;8.38;;
80400;SDS011;69727;53.132;8.230;2024-01-30T00:20:02;14.57;;;8.13;;
80400;SDS011;69727;53.132;8.230;2024-01-30T00:22:30;13.20;;;7.00;;
80400;SDS011;69727;53.132;8.230;2024-01-30T00:24:56;14.05;;;8.10;;
80400;SDS011;69727;53.132;8.230;2024-01-30T00:27:22;17.52;;;9.52;;
80400;SDS011;69727;53.132;8.230;2024-01-30T00:29:47;13.67;;;8.03;;
80400;SDS011;69727;53.132;8.230;2024-01-30T00:32:12;16.90;;;8.60;;
80400;SDS011;69727;53.132;8.230;2024-01-30T00:34:38;17.30;;;9.00;;
80400;SDS011;69727;53.132;8.230;2024-01-30T00:37:03;17.38;;;8.75;;
80400;SDS011;69727;53.132;8.230;2024-01-30T00:39:29;14.75;;;8.82;;
80400;SDS011;69727;53.132;8.230;2024-01-30T00:41:54;17.48;;;9.15;;
80400;SDS011;69727;53.132;8.230;2024-01-30T00:44:20;15.55;;;9.30;;
80400;SDS011;69727;53.132;8.230;2024-01-30T00:46:45;18.92;;;9.48;;
80400;SDS011;69727;53.132;8.230;2024-01-30T00:49:11;15.65;;;8.93;;
80400;SDS011;69727;53.132;8.230;2024-01-30T00:51:36;16.85;;;9.18;;
80400;SDS011;69727;53.132;8.230;2024-01-30T00:54:02;16.95;;;8.30;;
80400;SDS011;69727;53.132;8.230;2024-01-30T00:56:28;14.77;;;8.52;;
80400;SDS011;69727;53.132;8.230;2024-01-30T00:58:53;16.05;;;9.68;;
80400;SDS011;69727;53.132;8.230;2024-01-30T01:01:19;21.27;;;9.60;;
80400;SDS011;69727;53.132;8.230;2024-01-30T01:03:44;15.20;;;8.65;;
80400;SDS011;69727;53.132;8.230;2024-01-30T01:06:10;16.65;;;9.02;;
80400;SDS011;69727;53.132;8.230;2024-01-30T01:08:35;17.98;;;8.80;;
80400;SDS011;69727;53.132;8.230;2024-01-30T01:11:01;18.65;;;9.18;;
80400;SDS011;69727;53.132;8.230;2024-01-30T01:13:28;17.67;;;10.00;;
80400;SDS011;69727;53.132;8.230;2024-01-30T01:15:54;16.30;;;8.52;;
80400;SDS011;69727;53.132;8.230;2024-01-30T01:18:19;16.17;;;9.35;;
80400;SDS011;69727;53.132;8.230;2024-01-30T01:20:45;15.27;;;9.30;;
80400;SDS011;69727;53.132;8.230;2024-01-30T01:23:10;16.27;;;8.82;;
80400;SDS011;69727;53.132;8.230;2024-01-30T01:25:36;15.90;;;8.50;;
80400;SDS011;69727;53.132;8.230;2024-01-30T01:28:01;14.77;;;8.13;;
80400;SDS011;69727;53.132;8.230;2024-01-30T01:30:27;13.00;;;7.43;;
80400;SDS011;69727;53.132;8.230;2024-01-30T01:32:54;13.95;;;7.60;;
80400;SDS011;69727;53.132;8.230;2024-01-30T01:35:26;14.23;;;7.68;;
80400;SDS011;69727;53.132;8.230;2024-01-30T01:37:52;15.40;;;7.70;;
80400;SDS011;69727;53.132;8.230;2024-01-30T01:40:23;15.40;;;8.57;;
80400;SDS011;69727;53.132;8.230;2024-01-30T01:42:50;15.57;;;7.95;;
80400;SDS011;69727;53.132;8.230;2024-01-30T01:45:17;16.73;;;8.60;;
80400;SDS011;69727;53.132;8.230;2024-01-30T01:47:42;15.52;;;8.43;;
80400;SDS011;69727;53.132;8.230;2024-01-30T01:50:11;17.00;;;9.02;;
80400;SDS011;69727;53.132;8.230;2024-01-30T01:52:38;14.70;;;7.75;;
80400;SDS011;69727;53.132;8.230;2024-01-30T01:55:05;16.70;;;9.15;;
80400;SDS011;69727;53.132;8.230;2024-01-30T01:57:31;16.70;;;8.82;;
80400;SDS011;69727;53.132;8.230;2024-01-30T01:59:58;18.02;;;8.63;;
80400;SDS011;69727;53.132;8.230;2024-01-30T02:02:24;15.68;;;8.02;;
80400;SDS011;69727;53.132;8.230;2024-01-30T02:04:55;15.77;;;8.77;;
80400;SDS011;69727;53.132;8.230;2024-01-30T02:07:22;18.08;;;9.48;;
80400;SDS011;69727;53.132;8.230;2024-01-30T02:09:47;16.95;;;9.07;;
80400;SDS011;69727;53.132;8.230;2024-01-30T02:12:13;18.33;;;9.27;;
80400;SDS011;69727;53.132;8.230;2024-01-30T02:14:48;21.98;;;10.45;;
80400;SDS011;69727;53.132;8.230;2024-01-30T02:17:15;17.92;;;10.02;;
80400;SDS011;69727;53.132;8.230;2024-01-30T02:19:41;18.63;;;10.20;;
80400;SDS011;69727;53.132;8.230;2024-01-30T02:22:07;20.00;;;11.10;;
80400;SDS011;69727;53.132;8.230;2024-01-30T02:24:32;16.17;;;9.70;;
80400;SDS011;69727;53.132;8.230;2024-01-30T02:26:58;14.15;;;8.60;;
80400;SDS011;69727;53.132;8.230;2024-01-30T02:29:24;15.15;;;8.25;;
80400;SDS011;69727;53.132;8.230;2024-01-30T02:31:49;16.92;;;9.27;;
80400;SDS011;69727;53.132;8.230;2024-01-30T02:34:15;14.15;;;7.95;;
80400;SDS011;69727;53.132;8.230;2024-01-30T02:36:43;15.43;;;9.05;;
80400;SDS011;69727;53.132;8.230;2024-01-30T02:39:09;16.58;;;9.02;;
80400;SDS011;69727;53.132;8.230;2024-01-30T02:41:34;18.33;;;7.72;;
80400;SDS011;69727;53.132;8.230;2024-01-30T02:44:00;14.98;;;8.30;;
80400;SDS011;69727;53.132;8.230;2024-01-30T02:46:26;16.17;;;8.65;;
80400;SDS011;69727;53.132;8.230;2024-01-30T02:48:52;14.90;;;8.40;;
80400;SDS011;69727;53.132;8.230;2024-01-30T02:51:17;14.85;;;8.77;;
80400;SDS011;69727;53.132;8.230;2024-01-30T02:53:43;15.13;;;8.43;;
80400;SDS011;69727;53.132;8.230;2024-01-30T02:56:08;16.52;;;9.25;;
80400;SDS011;69727;53.132;8.230;2024-01-30T02:58:35;17.75;;;8.30;;
80400;SDS011;69727;53.132;8.230;2024-01-30T03:01:07;13.57;;;7.22;;
80400;SDS011;69727;53.132;8.230;2024-01-30T03:03:32;17.30;;;8.30;;
80400;SDS011;69727;53.132;8.230;2024-01-30T03:06:00;15.00;;;8.65;;
80400;SDS011;69727;53.132;8.230;2024-01-30T03:08:25;12.98;;;7.72;;
80400;SDS011;69727;53.132;8.230;2024-01-30T03:10:51;14.48;;;7.85;;
80400;SDS011;69727;53.132;8.230;2024-01-30T03:13:16;15.20;;;8.10;;
80400;SDS011;69727;53.132;8.230;2024-01-30T03:15:41;17.92;;;7.85;;
80400;SDS011;69727;53.132;8.230;2024-01-30T03:18:07;13.60;;;7.50;;
80400;SDS011;69727;53.132;8.230;2024-01-30T03:20:32;13.07;;;8.25;;
80400;SDS011;69727;53.132;8.230;2024-01-30T03:22:59;16.38;;;8.30;;
80400;SDS011;69727;53.132;8.230;2024-01-30T03:25:25;13.93;;;8.55;;
80400;SDS011;69727;53.132;8.230;2024-01-30T03:27:50;14.37;;;7.93;;
80400;SDS011;69727;53.132;8.230;2024-01-30T03:30:16;17.10;;;9.00;;
80400;SDS011;69727;53.132;8.230;2024-01-30T03:32:42;17.50;;;9.07;;
80400;SDS011;69727;53.132;8.230;2024-01-30T03:35:08;16.63;;;9.88;;
80400;SDS011;69727;53.132;8.230;2024-01-30T03:37:33;15.00;;;8.65;;
80400;SDS011;69727;53.132;8.230;2024-01-30T03:39:59;19.00;;;9.17;;
80400;SDS011;69727;53.132;8.230;2024-01-30T03:42:24;19.02;;;10.00;;
80400;SDS011;69727;53.132;8.230;2024-01-30T03:44:50;17.35;;;9.50;;
80400;SDS011;69727;53.132;8.230;2024-01-30T03:47:18;20.30;;;10.35;;
80400;SDS011;69727;53.132;8.230;2024-01-30T03:49:44;16.42;;;8.65;;
80400;SDS011;69727;53.132;8.230;2024-01-30T03:52:10;17.58;;;9.27;;
80400;SDS011;69727;53.132;8.230;2024-01-30T03:54:35;19.73;;;9.23;;
80400;SDS011;69727;53.132;8.230;2024-01-30T03:57:00;18.07;;;9.20;;
80400;SDS011;69727;53.132;8.230;2024-01-30T03:59:26;17.53;;;10.47;;
80400;SDS011;69727;53.132;8.230;2024-01-30T04:01:51;18.17;;;10.10;;
80400;SDS011;69727;53.132;8.230;2024-01-30T04:04:20;17.92;;;9.88;;
80400;SDS011;69727;53.132;8.230;2024-01-30T04:06:46;16.92;;;8.80;;
80400;SDS011;69727;53.132;8.230;2024-01-30T04:09:14;18.55;;;9.88;;
80400;SDS011;69727;53.132;8.230;2024-01-30T04:11:40;16.48;;;8.85;;
80400;SDS011;69727;53.132;8.230;2024-01-30T04:14:06;17.58;;;9.07;;
80400;SDS011;69727;53.132;8.230;2024-01-30T04:16:32;17.60;;;9.35;;
80400;SDS011;69727;53.132;8.230;2024-01-30T04:18:57;18.40;;;9.93;;
80400;SDS011;69727;53.132;8.230;2024-01-30T04:21:23;17.08;;;9.65;;
80400;SDS011;69727;53.132;8.230;2024-01-30T04:23:48;17.40;;;8.80;;
80400;SDS011;69727;53.132;8.230;2024-01-30T04:26:15;17.77;;;9.82;;
80400;SDS011;69727;53.132;8.230;2024-01-30T04:28:41;18.27;;;9.80;;
80400;SDS011;69727;53.132;8.230;2024-01-30T04:31:07;20.25;;;10.52;;
80400;SDS011;69727;53.132;8.230;2024-01-30T04:33:33;17.88;;;9.40;;
80400;SDS011;69727;53.132;8.230;2024-01-30T04:35:58;19.48;;;10.98;;
80400;SDS011;69727;53.132;8.230;2024-01-30T04:38:23;16.65;;;9.85;;
80400;SDS011;69727;53.132;8.230;2024-01-30T04:40:49;14.20;;;8.77;;
80400;SDS011;69727;53.132;8.230;2024-01-30T04:43:14;17.13;;;8.93;;
80400;SDS011;69727;53.132;8.230;2024-01-30T04:45:40;17.98;;;9.77;;
80400;SDS011;69727;53.132;8.230;2024-01-30T04:48:06;15.15;;;9.07;;
80400;SDS011;69727;53.132;8.230;2024-01-30T04:50:32;15.73;;;8.57;;
80400;SDS011;69727;53.132;8.230;2024-01-30T04:52:57;16.05;;;9.50;;
80400;SDS011;69727;53.132;8.230;2024-01-30T04:55:23;17.33;;;8.93;;
80400;SDS011;69727;53.132;8.230;2024-01-30T04:57:48;15.20;;;8.70;;
80400;SDS011;69727;53.132;8.230;2024-01-30T05:00:13;15.83;;;10.03;;
80400;SDS011;69727;53.132;8.230;2024-01-30T05:02:40;18.70;;;9.88;;
80400;SDS011;69727;53.132;8.230;2024-01-30T05:05:05;16.87;;;9.07;;
80400;SDS011;69727;53.132;8.230;2024-01-30T05:07:31;16.20;;;8.73;;
80400;SDS011;69727;53.132;8.230;2024-01-30T05:09:56;16.00;;;8.30;;
80400;SDS011;69727;53.132;8.230;2024-01-30T05:12:22;20.63;;;9.45;;
80400;SDS011;69727;53.132;8.230;2024-01-30T05:14:47;16.30;;;9.30;;
80400;SDS011;69727;53.132;8.230;2024-01-30T05:17:12;15.23;;;8.93;;
80400;SDS011;69727;53.132;8.230;2024-01-30T05:19:38;14.77;;;7.70;;
80400;SDS011;69727;53.132;8.230;2024-01-30T05:22:03;16.08;;;8.45;;
80400;SDS011;69727;53.132;8.230;2024-01-30T05:24:29;15.82;;;8.93;;
80400;SDS011;69727;53.132;8.230;2024-01-30T05:26:55;13.95;;;8.30;;
80400;SDS011;69727;53.132;8.230;2024-01-30T05:29:20;15.85;;;7.95;;
80400;SDS011;69727;53.132;8.230;2024-01-30T05:31:46;16.85;;;9.60;;
80400;SDS011;69727;53.132;8.230;2024-01-30T05:34:11;17.15;;;8.23;;
80400;SDS011;69727;53.132;8.230;2024-01-30T05:36:36;16.90;;;8.85;;
80400;SDS011;69727;53.132;8.230;2024-01-30T05:39:02;18.88;;;9.82;;
80400;SDS011;69727;53.132;8.230;2024-01-30T05:41:27;17.35;;;9.75;;
80400;SDS011;69727;53.132;8.230;2024-01-30T05:43:53;17.80;;;9.50;;
80400;SDS011;69727;53.132;8.230;2024-01-30T05:46:18;19.25;;;9.63;;
80400;SDS011;69727;53.132;8.230;2024-01-30T05:48:43;18.88;;;9.85;;
80400;SDS011;69727;53.132;8.230;2024-01-30T05:51:09;15.43;;;8.25;;
80400;SDS011;69727;53.132;8.230;2024-01-30T05:53:34;16.85;;;9.40;;
80400;SDS011;69727;53.132;8.230;2024-01-30T05:56:03;15.85;;;8.18;;
80400;SDS011;69727;53.132;8.230;2024-01-30T05:58:28;16.63;;;8.85;;
80400;SDS011;69727;53.132;8.230;2024-01-30T06:00:54;21.20;;;11.45;;
80400;SDS011;69727;53.132;8.230;2024-01-30T06:03:19;19.17;;;9.30;;
80400;SDS011;69727;53.132;8.230;2024-01-30T06:05:45;17.40;;;10.02;;
80400;SDS011;69727;53.132;8.230;2024-01-30T06:08:11;20.98;;;10.68;;
80400;SDS011;69727;53.132;8.230;2024-01-30T06:10:36;19.67;;;9.93;;
80400;SDS011;69727;53.132;8.230;2024-01-30T06:13:01;18.33;;;9.50;;
80400;SDS011;69727;53.132;8.230;2024-01-30T06:15:27;17.67;;;9.38;;
80400;SDS011;69727;53.132;8.230;2024-01-30T06:17:54;19.98;;;9.52;;
80400;SDS011;69727;53.132;8.230;2024-01-30T06:20:20;17.73;;;8.20;;
80400;SDS011;69727;53.132;8.230;2024-01-30T06:22:45;15.85;;;8.55;;
80400;SDS011;69727;53.132;8.230;2024-01-30T06:25:11;15.60;;;8.43;;
80400;SDS011;69727;53.132;8.230;2024-01-30T06:27:37;16.73;;;8.38;;
80400;SDS011;69727;53.132;8.230;2024-01-30T06:30:02;19.60;;;10.35;;
80400;SDS011;69727;53.132;8.230;2024-01-30T06:32:29;16.10;;;8.77;;
80400;SDS011;69727;53.132;8.230;2024-01-30T06:34:59;16.45;;;8.98;;
80400;SDS011;69727;53.132;8.230;2024-01-30T06:37:25;18.50;;;10.20;;
80400;SDS011;69727;53.132;8.230;2024-01-30T06:39:50;16.60;;;8.60;;
80400;SDS011;69727;53.132;8.230;2024-01-30T06:42:17;14.80;;;8.68;;
80400;SDS011;69727;53.132;8.230;2024-01-30T06:44:42;16.23;;;8.70;;
80400;SDS011;69727;53.132;8.230;2024-01-30T06:47:07;18.25;;;9.95;;
80400;SDS011;69727;53.132;8.230;2024-01-30T06:49:33;19.75;;;10.05;;
80400;SDS011;69727;53.132;8.230;2024-01-30T06:51:58;17.85;;;9.93;;
80400;SDS011;69727;53.132;8.230;2024-01-30T06:54:24;18.43;;;8.90;;
80400;SDS011;69727;53.132;8.230;2024-01-30T06:56:49;15.83;;;8.83;;
80400;SDS011;69727;53.132;8.230;2024-01-30T06:59:15;17.13;;;9.10;;
80400;SDS011;69727;53.132;8.230;2024-01-30T07:01:40;17.90;;;9.63;;
80400;SDS011;69727;53.132;8.230;2024-01-30T07:04:05;17.27;;;9.77;;
80400;SDS011;69727;53.132;8.230;2024-01-30T07:06:31;17.37;;;8.83;;
80400;SDS011;69727;53.132;8.230;2024-01-30T07:08:57;17.83;;;10.37;;
80400;SDS011;69727;53.132;8.230;2024-01-30T07:11:22;21.25;;;10.77;;
80400;SDS011;69727;53.132;8.230;2024-01-30T07:13:49;17.67;;;9.40;;
80400;SDS011;69727;53.132;8.230;2024-01-30T07:16:16;17.67;;;9.25;;
80400;SDS011;69727;53.132;8.230;2024-01-30T07:18:41;18.05;;;9.52;;
80400;SDS011;69727;53.132;8.230;2024-01-30T07:21:08;22.08;;;10.27;;
80400;SDS011;69727;53.132;8.230;2024-01-30T07:23:33;17.58;;;9.25;;
80400;SDS011;69727;53.132;8.230;2024-01-30T07:26:00;20.00;;;10.55;;
80400;SDS011;69727;53.132;8.230;2024-01-30T07:28:26;18.58;;;10.60;;
80400;SDS011;69727;53.132;8.230;2024-01-30T07:30:51;18.97;;;9.00;;
80400;SDS011;69727;53.132;8.230;2024-01-30T07:33:16;18.52;;;9.40;;
80400;SDS011;69727;53.132;8.230;2024-01-30T07:35:42;15.75;;;8.13;;
80400;SDS011;69727;53.132;8.230;2024-01-30T07:38:07;21.40;;;10.52;;
80400;SDS011;69727;53.132;8.230;2024-01-30T07:40:33;17.47;;;9.43;;
80400;SDS011;69727;53.132;8.230;2024-01-30T07:42:58;15.45;;;9.18;;
80400;SDS011;69727;53.132;8.230;2024-01-30T07:45:24;17.05;;;8.90;;
80400;SDS011;69727;53.132;8.230;2024-01-30T07:47:50;17.58;;;9.77;;
80400;SDS011;69727;53.132;8.230;2024-01-30T07:50:16;17.98;;;9.27;;
80400;SDS011;69727;53.132;8.230;2024-01-30T07:52:42;18.88;;;9.63;;
80400;SDS011;69727;53.132;8.230;2024-01-30T07:55:08;18.52;;;10.18;;
80400;SDS011;69727;53.132;8.230;2024-01-30T07:57:33;17.42;;;9.30;;
80400;SDS011;69727;53.132;8.230;2024-01-30T07:59:59;20.40;;;9.80;;
80400;SDS011;69727;53.132;8.230;2024-01-30T08:02:25;15.80;;;8.75;;
80400;SDS011;69727;53.132;8.230;2024-01-30T08:04:51;17.17;;;8.80;;
80400;SDS011;69727;53.132;8.230;2024-01-30T08:07:16;17.90;;;9.47;;
80400;SDS011;69727;53.132;8.230;2024-01-30T08:09:42;17.88;;;9.25;;
80400;SDS011;69727;53.132;8.230;2024-01-30T08:12:08;17.25;;;9.25;;
80400;SDS011;69727;53.132;8.230;2024-01-30T08:14:34;17.52;;;9.20;;
80400;SDS011;69727;53.132;8.230;2024-01-30T08:16:59;15.60;;;8.90;;
80400;SDS011;69727;53.132;8.230;2024-01-30T08:19:24;17.17;;;9.85;;
80400;SDS011;69727;53.132;8.230;2024-01-30T08:21:50;15.00;;;8.07;;
80400;SDS011;69727;53.132;8.230;2024-01-30T08:24:15;16.58;;;9.32;;
80400;SDS011;69727;53.132;8.230;2024-01-30T08:26:41;17.40;;;9.23;;
80400;SDS011;69727;53.132;8.230;2024-01-30T08:29:06;16.63;;;9.38;;
80400;SDS011;69727;53.132;8.230;2024-01-30T08:31:32;16.13;;;8.13;;
80400;SDS011;69727;53.132;8.230;2024-01-30T08:33:57;15.70;;;8.73;;
80400;SDS011;69727;53.132;8.230;2024-01-30T08:36:23;18.23;;;8.65;;
80400;SDS011;69727;53.132;8.230;2024-01-30T08:38:49;22.13;;;10.30;;
80400;SDS011;69727;53.132;8.230;2024-01-30T08:41:14;16.87;;;8.93;;
80400;SDS011;69727;53.132;8.230;2024-01-30T08:43:40;17.00;;;8.15;;
80400;SDS011;69727;53.132;8.230;2024-01-30T08:46:05;16.52;;;8.55;;
80400;SDS011;69727;53.132;8.230;2024-01-30T08:48:30;14.10;;;8.07;;
80400;SDS011;69727;53.132;8.230;2024-01-30T08:50:56;15.30;;;8.30;;
80400;SDS011;69727;53.132;8.230;2024-01-30T08:53:21;15.60;;;8.55;;
80400;SDS011;69727;53.132;8.230;2024-01-30T08:55:47;17.60;;;9.30;;
80400;SDS011;69727;53.132;8.230;2024-01-30T08:58:12;14.27;;;7.40;;
80400;SDS011;69727;53.132;8.230;2024-01-30T09:00:38;15.85;;;8.43;;
80400;SDS011;69727;53.132;8.230;2024-01-30T09:03:03;14.07;;;7.97;;
80400;SDS011;69727;53.132;8.230;2024-01-30T09:05:29;14.52;;;7.63;;
80400;SDS011;69727;53.132;8.230;2024-01-30T09:07:54;18.88;;;9.25;;
80400;SDS011;69727;53.132;8.230;2024-01-30T09:10:20;14.35;;;7.15;;
80400;SDS011;69727;53.132;8.230;2024-01-30T09:12:46;18.50;;;8.50;;
80400;SDS011;69727;53.132;8.230;2024-01-30T09:15:12;14.20;;;7.65;;
80400;SDS011;69727;53.132;8.230;2024-01-30T09:17:37;16.98;;;8.35;;
80400;SDS011;69727;53.132;8.230;2024-01-30T09:20:03;13.13;;;7.18;;
80400;SDS011;69727;53.132;8.230;2024-01-30T09:22:29;14.38;;;7.82;;
80400;SDS011;69727;53.132;8.230;2024-01-30T09:24:54;16.25;;;7.43;;
80400;SDS011;69727;53.132;8.230;2024-01-30T09:27:19;16.50;;;7.57;;
80400;SDS011;69727;53.132;8.230;2024-01-30T09:29:45;16.93;;;7.00;;
80400;SDS011;69727;53.132;8.230;2024-01-30T09:32:10;18.07;;;7.13;;
80400;SDS011;69727;53.132;8.230;2024-01-30T09:34:36;13.55;;;6.88;;
80400;SDS011;69727;53.132;8.230;2024-01-30T09:37:01;14.38;;;7.97;;
80400;SDS011;69727;53.132;8.230;2024-01-30T09:39:27;12.55;;;7.28;;
80400;SDS011;69727;53.132;8.230;2024-01-30T09:42:12;15.05;;;7.75;;
80400;SDS011;69727;53.132;8.230;2024-01-30T09:44:44;13.98;;;7.13;;
80400;SDS011;69727;53.132;8.230;2024-01-30T09:47:10;16.52;;;7.75;;
80400;SDS011;69727;53.132;8.230;2024-01-30T09:49:37;14.20;;;7.47;;
80400;SDS011;69727;53.132;8.230;2024-01-30T09:52:04;15.13;;;7.53;;
80400;SDS011;69727;53.132;8.230;2024-01-30T09:54:30;12.73;;;7.32;;
80400;SDS011;69727;53.132;8.230;2024-01-30T09:56:59;14.20;;;7.43;;
80400;SDS011;69727;53.132;8.230;2024-01-30T09:59:24;14.25;;;7.22;;
80400;SDS011;69727;53.132;8.230;2024-01-30T10:01:50;13.63;;;7.27;;
80400;SDS011;69727;53.132;8.230;2024-01-30T10:04:16;12.32;;;6.45;;
80400;SDS011;69727;53.132;8.230;2024-01-30T10:06:42;17.80;;;7.35;;
80400;SDS011;69727;53.132;8.230;2024-01-30T10:09:07;14.38;;;6.40;;
80400;SDS011;69727;53.132;8.230;2024-01-30T10:11:34;13.50;;;6.90;;
80400;SDS011;69727;53.132;8.230;2024-01-30T10:14:00;12.07;;;6.40;;
80400;SDS011;69727;53.132;8.230;2024-01-30T10:16:25;12.77;;;6.53;;
80400;SDS011;69727;53.132;8.230;2024-01-30T10:18:51;13.45;;;6.75;;
80400;SDS011;69727;53.132;8.230;2024-01-30T10:21:16;13.85;;;6.63;;
80400;SDS011;69727;53.132;8.230;2024-01-30T10:23:43;13.77;;;7.25;;
80400;SDS011;69727;53.132;8.230;2024-01-30T10:26:09;12.10;;;6.15;;
80400;SDS011;69727;53.132;8.230;2024-01-30T10:28:35;12.77;;;7.03;;
80400;SDS011;69727;53.132;8.230;2024-01-30T10:31:01;13.88;;;6.60;;
80400;SDS011;69727;53.132;8.230;2024-01-30T10:33:29;13.15;;;6.75;;
80400;SDS011;69727;53.132;8.230;2024-01-30T10:36:01;11.75;;;5.68;;
80400;SDS011;69727;53.132;8.230;2024-01-30T10:38:28;12.18;;;6.50;;
80400;SDS011;69727;53.132;8.230;2024-01-30T10:40:58;13.05;;;7.00;;
80400;SDS011;69727;53.132;8.230;2024-01-30T10:43:31;14.90;;;6.40;;
80400;SDS011;69727;53.132;8.230;2024-01-30T10:46:11;13.23;;;6.63;;
80400;SDS011;69727;53.132;8.230;2024-01-30T10:48:46;13.77;;;6.57;;
80400;SDS011;69727;53.132;8.230;2024-01-30T10:51:15;11.10;;;6.70;;
80400;SDS011;69727;53.132;8.230;2024-01-30T10:53:41;14.15;;;6.45;;
80400;SDS011;69727;53.132;8.230;2024-01-30T10:56:11;12.40;;;6.53;;
80400;SDS011;69727;53.132;8.230;2024-01-30T10:58:38;12.52;;;6.95;;
80400;SDS011;69727;53.132;8.230;2024-01-30T11:01:04;11.82;;;6.55;;
80400;SDS011;69727;53.132;8.230;2024-01-30T11:03:31;12.15;;;5.85;;
80400;SDS011;69727;53.132;8.230;2024-01-30T11:05:59;13.27;;;7.03;;
80400;SDS011;69727;53.132;8.230;2024-01-30T11:08:26;14.82;;;7.63;;
80400;SDS011;69727;53.132;8.230;2024-01-30T11:10:56;13.68;;;6.72;;
80400;SDS011;69727;53.132;8.230;2024-01-30T11:13:26;11.48;;;6.13;;
80400;SDS011;69727;53.132;8.230;2024-01-30T11:15:54;17.88;;;7.38;;
80400;SDS011;69727;53.132;8.230;2024-01-30T11:18:26;13.75;;;6.55;;
80400;SDS011;69727;53.132;8.230;2024-01-30T11:20:57;12.95;;;7.13;;
80400;SDS011;69727;53.132;8.230;2024-01-30T11:23:27;13.55;;;6.25;;
80400;SDS011;69727;53.132;8.230;2024-01-30T11:25:53;11.75;;;6.78;;
80400;SDS011;69727;53.132;8.230;2024-01-30T11:28:20;13.93;;;6.38;;
80400;SDS011;69727;53.132;8.230;2024-01-30T11:30:47;13.20;;;6.28;;
80400;SDS011;69727;53.132;8.230;2024-01-30T11:33:15;12.10;;;6.30;;
80400;SDS011;69727;53.132;8.230;2024-01-30T11:35:55;12.18;;;6.43;;
80400;SDS011;69727;53.132;8.230;2024-01-30T11:38:23;12.32;;;6.57;;
80400;SDS011;69727;53.132;8.230;2024-01-30T11:40:51;12.20;;;6.57;;
80400;SDS011;69727;53.132;8.230;2024-01-30T11:43:18;11.60;;;6.03;;
80400;SDS011;69727;53.132;8.230;2024-01-30T11:45:44;17.23;;;7.57;;
80400;SDS011;69727;53.132;8.230;2024-01-30T11:48:11;16.88;;;7.80;;
80400;SDS011;69727;53.132;8.230;2024-01-30T11:50:37;11.93;;;6.78;;
80400;SDS011;69727;53.132;8.230;2024-01-30T11:53:04;12.40;;;6.25;;
80400;SDS011;69727;53.132;8.230;2024-01-30T11:55:29;13.82;;;6.88;;
80400;SDS011;69727;53.132;8.230;2024-01-30T11:57:56;13.27;;;6.80;;
80400;SDS011;69727;53.132;8.230;2024-01-30T12:00:22;11.93;;;6.78;;
80400;SDS011;69727;53.132;8.230;2024-01-30T12:02:51;13.73;;;6.82;;
80400;SDS011;69727;53.132;8.230;2024-01-30T12:05:21;12.70;;;5.97;;
80400;SDS011;69727;53.132;8.230;2024-01-30T12:07:47;13.43;;;7.30;;
80400;SDS011;69727;53.132;8.230;2024-01-30T12:10:12;12.18;;;6.18;;
80400;SDS011;69727;53.132;8.230;2024-01-30T12:12:48;14.90;;;6.75;;
80400;SDS011;69727;53.132;8.230;2024-01-30T12:15:15;12.80;;;6.72;;
80400;SDS011;69727;53.132;8.230;2024-01-30T12:17:41;13.05;;;7.22;;
80400;SDS011;69727;53.132;8.230;2024-01-30T12:20:13;11.90;;;6.57;;
80400;SDS011;69727;53.132;8.230;2024-01-30T12:22:44;11.82;;;6.03;;
80400;SDS011;69727;53.132;8.230;2024-01-30T12:25:11;12.07;;;6.22;;
80400;SDS011;69727;53.132;8.230;2024-01-30T12:27:38;11.93;;;6.57;;
80400;SDS011;69727;53.132;8.230;2024-01-30T12:30:08;11.52;;;6.22;;
80400;SDS011;69727;53.132;8.230;2024-01-30T12:32:39;14.68;;;6.57;;
80400;SDS011;69727;53.132;8.230;2024-01-30T12:35:15;14.80;;;6.55;;
80400;SDS011;69727;53.132;8.230;2024-01-30T12:37:43;16.02;;;7.32;;
80400;SDS011;69727;53.132;8.230;2024-01-30T12:40:13;11.73;;;6.28;;
80400;SDS011;69727;53.132;8.230;2024-01-30T12:42:40;13.23;;;6.55;;
80400;SDS011;69727;53.132;8.230;2024-01-30T12:45:07;13.98;;;7.05;;
80400;SDS011;69727;53.132;8.230;2024-01-30T12:47:33;11.15;;;6.60;;
80400;SDS011;69727;53.132;8.230;2024-01-30T12:49:59;12.97;;;6.07;;
80400;SDS011;69727;53.132;8.230;2024-01-30T12:52:25;12.93;;;6.65;;
80400;SDS011;69727;53.132;8.230;2024-01-30T12:54:51;11.20;;;6.00;;
80400;SDS011;69727;53.132;8.230;2024-01-30T12:57:17;12.57;;;5.90;;
80400;SDS011;69727;53.132;8.230;2024-01-30T12:59:44;12.45;;;6.22;;
80400;SDS011;69727;53.132;8.230;2024-01-30T13:02:09;12.85;;;6.32;;
80400;SDS011;69727;53.132;8.230;2024-01-30T13:04:35;12.07;;;6.15;;
80400;SDS011;69727;53.132;8.230;2024-01-30T13:07:01;13.85;;;7.10;;
80400;SDS011;69727;53.132;8.230;2024-01-30T13:09:29;11.63;;;6.20;;
80400;SDS011;69727;53.132;8.230;2024-01-30T13:11:54;12.38;;;6.25;;
80400;SDS011;69727;53.132;8.230;2024-01-30T13:14:20;12.83;;;6.43;;
80400;SDS011;69727;53.132;8.230;2024-01-30T13:16:45;11.63;;;5.97;;
80400;SDS011;69727;53.132;8.230;2024-01-30T13:19:11;18.15;;;6.72;;
80400;SDS011;69727;53.132;8.230;2024-01-30T13:21:36;12.82;;;7.18;;
80400;SDS011;69727;53.132;8.230;2024-01-30T13:24:02;16.75;;;7.72;;
80400;SDS011;69727;53.132;8.230;2024-01-30T13:26:28;14.70;;;7.35;;
80400;SDS011;69727;53.132;8.230;2024-01-30T13:28:55;13.48;;;6.57;;
80400;SDS011;69727;53.132;8.230;2024-01-30T13:31:21;14.48;;;6.57;;
80400;SDS011;69727;53.132;8.230;2024-01-30T13:33:46;14.00;;;7.15;;
80400;SDS011;69727;53.132;8.230;2024-01-30T13:36:13;13.25;;;6.38;;
80400;SDS011;69727;53.132;8.230;2024-01-30T13:38:39;14.15;;;7.05;;
80400;SDS011;69727;53.132;8.230;2024-01-30T13:41:05;12.80;;;6.60;;
80400;SDS011;69727;53.132;8.230;2024-01-30T13:43:31;15.98;;;6.40;;
80400;SDS011;69727;53.132;8.230;2024-01-30T13:45:56;16.83;;;8.23;;
80400;SDS011;69727;53.132;8.230;2024-01-30T13:48:22;21.58;;;7.07;;
80400;SDS011;69727;53.132;8.230;2024-01-30T13:50:47;14.98;;;7.25;;
80400;SDS011;69727;53.132;8.230;2024-01-30T13:53:13;11.73;;;5.50;;
80400;SDS011;69727;53.132;8.230;2024-01-30T13:55:38;16.52;;;7.25;;
80400;SDS011;69727;53.132;8.230;2024-01-30T13:58:04;14.45;;;7.68;;
80400;SDS011;69727;53.132;8.230;2024-01-30T14:00:31;11.55;;;6.53;;
80400;SDS011;69727;53.132;8.230;2024-01-30T14:02:56;13.63;;;6.85;;
80400;SDS011;69727;53.132;8.230;2024-01-30T14:05:25;11.75;;;5.60;;
80400;SDS011;69727;53.132;8.230;2024-01-30T14:07:51;14.43;;;6.90;;
80400;SDS011;69727;53.132;8.230;2024-01-30T14:10:17;14.73;;;6.57;;
80400;SDS011;69727;53.132;8.230;2024-01-30T14:12:43;15.07;;;6.50;;
80400;SDS011;69727;53.132;8.230;2024-01-30T14:15:09;13.55;;;6.53;;
80400;SDS011;69727;53.132;8.230;2024-01-30T14:17:35;10.93;;;6.50;;
80400;SDS011;69727;53.132;8.230;2024-01-30T14:20:01;11.25;;;5.88;;
80400;SDS011;69727;53.132;8.230;2024-01-30T14:22:28;12.65;;;7.28;;
80400;SDS011;69727;53.132;8.230;2024-01-30T14:24:53;13.98;;;6.35;;
80400;SDS011;69727;53.132;8.230;2024-01-30T14:27:19;14.25;;;6.05;;